createdAt,value
2022-11-25T00:01:36.552Z,100690.53
2022-11-25T00:04:06.827Z,100694.94
2022-11-25T00:06:37.264Z,100680.94
2022-11-25T00:09:10.579Z,100683.53
2022-11-25T00:11:40.409Z,100678.28
2022-11-25T00:14:11.513Z,100679.13
2022-11-25T00:16:45.124Z,100678.28
2022-11-25T00:19:18.515Z,100681.78
2022-11-25T00:21:47.223Z,100686.19
2022-11-25T00:24:17.387Z,100679.13
2022-11-25T00:26:46.419Z,100684.41
2022-11-25T00:29:15.272Z,100684.41
2022-11-25T00:31:44.742Z,100695.75
2022-11-25T00:34:15.264Z,100690.50
2022-11-25T00:36:45.366Z,100684.38
2022-11-25T00:39:16.291Z,100685.25
2022-11-25T00:42:03.387Z,100682.63
2022-11-25T00:44:40.497Z,100692.25
2022-11-25T00:47:11.986Z,100694.03
2022-11-25T00:49:43.589Z,100617.91
2022-11-25T00:52:17.690Z,100701.03
2022-11-25T00:54:47.753Z,100702.78
2022-11-25T00:57:17.847Z,100699.25
2022-11-25T00:59:46.583Z,100708.88
2022-11-25T01:02:16.976Z,100713.28
2022-11-25T01:04:46.351Z,100710.66
2022-11-25T01:07:19.241Z,100705.41
2022-11-25T01:09:49.026Z,100708.03
2022-11-25T01:12:17.829Z,100709.81
2022-11-25T01:14:46.452Z,100704.56
2022-11-25T01:17:16.027Z,100711.56
2022-11-25T01:19:44.619Z,100702.81
2022-11-25T01:22:13.263Z,100700.22
2022-11-25T01:24:45.940Z,100713.34
2022-11-25T01:27:15.466Z,100710.72
2022-11-25T01:29:44.052Z,100711.59
2022-11-25T01:32:15.213Z,100707.22
2022-11-25T01:34:44.379Z,100704.59
2022-11-25T01:37:12.939Z,100696.75
2022-11-25T01:39:41.596Z,100697.59
2022-11-25T01:42:11.718Z,100702.84
2022-11-25T01:44:43.480Z,100704.63
2022-11-25T01:47:16.976Z,100699.34
2022-11-25T01:49:52.141Z,100702.84
2022-11-25T01:52:29.195Z,100702.00
2022-11-25T01:55:03.030Z,100695.84
2022-11-25T01:57:41.026Z,100696.72
2022-11-25T02:00:12.122Z,100703.72
2022-11-25T02:02:47.904Z,100701.94
2022-11-25T02:05:20.545Z,100701.06
2022-11-25T02:07:52.423Z,100692.28
2022-11-25T02:10:26.534Z,100701.03
2022-11-25T02:12:58.445Z,100700.16
2022-11-25T02:15:27.967Z,100518.94
2022-11-25T02:17:57.852Z,100699.25
2022-11-25T02:20:26.999Z,100699.25
2022-11-25T02:23:04.320Z,100703.59
2022-11-25T02:25:36.296Z,100694.00
2022-11-25T02:28:13.440Z,100698.34
2022-11-25T02:30:42.838Z,100699.19
2022-11-25T02:33:11.482Z,100689.53
2022-11-25T02:35:42.363Z,100667.59
2022-11-25T02:38:14.297Z,100686.81
2022-11-25T02:40:48.830Z,100690.25
2022-11-25T02:43:17.887Z,100690.22
2022-11-25T02:45:58.587Z,100672.63
2022-11-25T02:48:46.134Z,100684.03
2022-11-25T02:51:18.939Z,100687.50
2022-11-25T02:53:48.735Z,100684.91
2022-11-25T02:56:24.408Z,100680.56
2022-11-25T02:58:53.139Z,100688.47
2022-11-25T03:01:22.219Z,100691.09
2022-11-25T03:03:51.951Z,100687.63
2022-11-25T03:06:20.601Z,100692.00
2022-11-25T03:08:50.086Z,100696.31
2022-11-25T03:11:20.951Z,100696.31
2022-11-25T03:13:49.604Z,100698.91
2022-11-25T03:16:18.244Z,100708.50
2022-11-25T03:18:46.991Z,100700.59
2022-11-25T03:21:17.421Z,100704.06
2022-11-25T03:23:46.036Z,100698.75
2022-11-25T03:26:14.619Z,100693.47
2022-11-25T03:28:44.608Z,100700.41
2022-11-25T03:31:13.525Z,100700.34
2022-11-25T03:33:42.092Z,100700.25
2022-11-25T03:36:10.695Z,100703.69
2022-11-25T03:38:39.336Z,100716.72
2022-11-25T03:41:08.427Z,100707.97
2022-11-25T03:43:37.169Z,100714.09
2022-11-25T03:46:07.385Z,100723.75
2022-11-25T03:48:36.457Z,100724.72
2022-11-25T03:51:05.154Z,100729.13
2022-11-25T03:53:34.095Z,100724.00
2022-11-25T03:56:06.001Z,100725.78
2022-11-25T03:58:34.689Z,100729.38
2022-11-25T04:01:20.264Z,100725.06
2022-11-25T04:03:50.351Z,100726.84
2022-11-25T04:06:20.182Z,100720.78
2022-11-25T04:08:53.740Z,100725.22
2022-11-25T04:11:43.040Z,100720.03
2022-11-25T04:14:11.551Z,100720.06
2022-11-25T04:16:40.211Z,100726.19
2022-11-25T04:19:10.668Z,100723.59
2022-11-25T04:21:39.693Z,100723.63
2022-11-25T04:24:09.072Z,100727.09
2022-11-25T04:26:37.819Z,100730.63
2022-11-25T04:29:06.627Z,100739.41
2022-11-25T04:31:36.452Z,100735.03
2022-11-25T04:34:05.567Z,100743.78
2022-11-25T04:36:35.696Z,100739.41
2022-11-25T04:39:05.308Z,100743.81
2022-11-25T04:41:35.653Z,100745.59
2022-11-25T04:44:04.672Z,100742.09
2022-11-25T04:46:38.601Z,100747.34
2022-11-25T04:49:07.792Z,100743.84
2022-11-25T04:51:37.800Z,100739.50
2022-11-25T04:54:11.213Z,100742.13
2022-11-25T04:56:43.369Z,100680.81
2022-11-25T04:59:29.395Z,100750.88
2022-11-25T05:01:58.278Z,100748.28
2022-11-25T05:04:41.728Z,100744.78
2022-11-25T05:07:13.869Z,100753.53
2022-11-25T05:09:43.845Z,100753.53
2022-11-25T05:12:20.669Z,100755.28
2022-11-25T05:14:50.212Z,100753.53
2022-11-25T05:17:21.185Z,100744.78
2022-11-25T05:19:51.373Z,100763.16
2022-11-25T05:22:24.911Z,100757.91
2022-11-25T05:24:54.485Z,100761.44
2022-11-25T05:27:24.482Z,100760.53
2022-11-25T05:29:56.212Z,100763.16
2022-11-25T05:32:26.191Z,100760.53
2022-11-25T05:34:57.884Z,100763.19
2022-11-25T05:37:28.036Z,100758.81
2022-11-25T05:40:04.286Z,100762.31
2022-11-25T05:42:51.369Z,100765.81
2022-11-25T05:45:21.575Z,100764.06
2022-11-25T05:47:50.928Z,100764.91
2022-11-25T05:50:24.489Z,100764.03
2022-11-25T05:53:06.539Z,100765.81
2022-11-25T05:55:37.081Z,100768.44
2022-11-25T05:58:10.611Z,100770.19
2022-11-25T06:00:39.504Z,100771.06
2022-11-25T06:03:12.338Z,100771.94
2022-11-25T06:05:41.292Z,100769.31
2022-11-25T06:08:13.114Z,100765.81
2022-11-25T06:10:42.439Z,100760.56
2022-11-25T06:13:11.823Z,100769.31
2022-11-25T06:15:43.726Z,100777.19
2022-11-25T06:18:17.212Z,100777.19
2022-11-25T06:20:47.016Z,100771.97
2022-11-25T06:23:17.064Z,100767.56
2022-11-25T06:25:48.155Z,100773.69
2022-11-25T06:28:17.345Z,100773.69
2022-11-25T06:30:50.347Z,100778.06
2022-11-25T06:33:26.625Z,100778.06
2022-11-25T06:35:56.213Z,100778.94
2022-11-25T06:38:26.124Z,100784.22
2022-11-25T06:40:59.144Z,100782.47
2022-11-25T06:43:29.119Z,100782.47
2022-11-25T06:46:02.876Z,100783.38
2022-11-25T06:48:31.576Z,100787.75
2022-11-25T06:51:01.443Z,100778.16
2022-11-25T06:53:31.918Z,100776.38
2022-11-25T06:56:08.673Z,100785.16
2022-11-25T06:58:38.433Z,100784.28
2022-11-25T07:01:08.822Z,100795.66
2022-11-25T07:03:37.516Z,100787.81
2022-11-25T07:06:06.829Z,100790.41
2022-11-25T07:08:36.854Z,100781.66
2022-11-25T07:11:07.118Z,100790.41
2022-11-25T07:13:36.146Z,100789.47
2022-11-25T07:16:06.258Z,100799.91
2022-11-25T07:18:36.287Z,100799.00
2022-11-25T07:21:07.085Z,100804.19
2022-11-25T07:23:39.902Z,100789.22
2022-11-25T07:26:12.577Z,100796.22
2022-11-25T07:28:41.520Z,100807.53
2022-11-25T07:31:32.767Z,100801.47
2022-11-25T07:34:04.133Z,100800.59
2022-11-25T07:36:33.925Z,100826.06
2022-11-25T07:39:07.444Z,100826.16
2022-11-25T07:41:36.607Z,100833.22
2022-11-25T07:44:07.663Z,100828.88
2022-11-25T07:46:47.630Z,100828.94
2022-11-25T07:49:18.540Z,100829.81
2022-11-25T07:51:51.309Z,100830.69
2022-11-25T07:54:22.104Z,100828.06
2022-11-25T07:56:51.425Z,100835.06
2022-11-25T07:59:21.849Z,100835.91
2022-11-25T08:01:51.164Z,100838.56
2022-11-25T08:04:21.238Z,100839.41
2022-11-25T08:06:51.852Z,100841.19
2022-11-25T08:09:24.352Z,100833.31
2022-11-25T08:11:53.372Z,100838.59
2022-11-25T08:14:22.260Z,100835.97
2022-11-25T08:16:51.078Z,100831.59
2022-11-25T08:19:20.029Z,100842.97
2022-11-25T08:21:48.864Z,100842.09
2022-11-25T08:24:19.208Z,100839.47
2022-11-25T08:26:51.089Z,100838.56
2022-11-25T08:29:20.756Z,100841.19
2022-11-25T08:31:49.356Z,100843.81
2022-11-25T08:34:21.108Z,100844.72
2022-11-25T08:36:52.185Z,100845.59
2022-11-25T08:39:50.513Z,100838.56
2022-11-25T08:42:12.122Z,100843.88
2022-11-25T08:44:40.745Z,100779.03
2022-11-25T08:47:10.041Z,100836.84
2022-11-25T08:49:41.293Z,100843.84
2022-11-25T08:52:10.899Z,100836.81
2022-11-25T08:54:39.632Z,100834.19
2022-11-25T08:57:08.398Z,100842.91
2022-11-25T08:59:39.159Z,100845.53
2022-11-25T09:02:09.635Z,100848.19
2022-11-25T09:04:38.358Z,100850.78
2022-11-25T09:07:07.106Z,100853.44
2022-11-25T09:09:35.960Z,100856.06
2022-11-25T09:12:05.261Z,100855.19
2022-11-25T09:14:33.888Z,100864.84
2022-11-25T09:17:03.840Z,100862.22
2022-11-25T09:19:32.532Z,100860.50
2022-11-25T09:22:01.129Z,100866.63
2022-11-25T09:24:30.111Z,100868.41
2022-11-25T09:26:58.740Z,100861.41
2022-11-25T09:29:27.841Z,100862.28
2022-11-25T09:31:56.464Z,100858.78
2022-11-25T09:34:26.455Z,100861.41
2022-11-25T09:36:55.136Z,100851.75
2022-11-25T09:39:28.164Z,100861.41
2022-11-25T09:42:26.062Z,100850.00
2022-11-25T09:45:25.595Z,100854.41
2022-11-25T09:48:01.964Z,100852.63
2022-11-25T09:50:57.611Z,100853.50
2022-11-25T09:53:39.916Z,100860.50
2022-11-25T09:56:19.932Z,100858.75
2022-11-25T09:58:54.594Z,100858.72
2022-11-25T10:01:26.274Z,100859.59
2022-11-25T10:04:01.363Z,100856.97
2022-11-25T10:06:33.924Z,100855.22
2022-11-25T10:09:05.782Z,100860.47
2022-11-25T10:11:47.917Z,100849.09
2022-11-25T10:14:25.596Z,100858.72
2022-11-25T10:17:02.636Z,100852.59
2022-11-25T10:19:47.574Z,100857.84
2022-11-25T10:22:25.318Z,100853.47
2022-11-25T10:24:58.101Z,100852.59
2022-11-25T10:27:32.322Z,100849.94
2022-11-25T10:30:08.338Z,100859.59
2022-11-25T10:32:44.653Z,100857.84
2022-11-25T10:35:31.014Z,100851.66
2022-11-25T10:38:04.971Z,100847.28
2022-11-25T10:40:33.566Z,100845.50
2022-11-25T10:43:12.593Z,100842.88
2022-11-25T10:45:55.685Z,100825.31
2022-11-25T10:48:42.871Z,100833.19
2022-11-25T10:51:31.141Z,100834.94
2022-11-25T10:54:13.786Z,100837.59
2022-11-25T10:56:51.612Z,100834.03
2022-11-25T10:59:30.115Z,100827.84
2022-11-25T11:02:20.222Z,100826.09
2022-11-25T11:05:00.484Z,100822.59
2022-11-25T11:07:30.764Z,100837.50
2022-11-25T11:10:18.298Z,100832.25
2022-11-25T11:12:58.600Z,100834.84
2022-11-25T11:15:29.295Z,100835.72
2022-11-25T11:17:59.953Z,100832.19
2022-11-25T11:20:30.783Z,100829.56
2022-11-25T11:23:10.188Z,100824.25
2022-11-25T11:25:41.759Z,100828.59
2022-11-25T11:28:26.598Z,100831.19
2022-11-25T11:31:01.213Z,100804.91
2022-11-25T11:33:35.475Z,100831.16
2022-11-25T11:36:26.132Z,100819.66
2022-11-25T11:38:57.624Z,100823.13
2022-11-25T11:41:37.703Z,100826.63
2022-11-25T11:44:23.549Z,100829.25
2022-11-25T11:47:08.404Z,100760.94
2022-11-25T11:50:20.094Z,100826.63
2022-11-25T11:52:58.051Z,100818.72
2022-11-25T11:56:05.641Z,100816.06
2022-11-25T11:58:55.258Z,100814.31
2022-11-25T12:01:44.984Z,100824.00
2022-11-25T12:04:21.764Z,100821.34
2022-11-25T12:07:03.142Z,100823.13
2022-11-25T12:09:35.705Z,100824.00
2022-11-25T12:12:07.274Z,100824.88
2022-11-25T12:14:43.395Z,100823.97
2022-11-25T12:17:19.140Z,100826.59
2022-11-25T12:19:57.813Z,100824.84
2022-11-25T12:22:31.266Z,100826.63
2022-11-25T12:25:06.995Z,100827.50
2022-11-25T12:27:41.076Z,100791.66
2022-11-25T12:30:16.144Z,100829.28
2022-11-25T12:32:57.839Z,100821.41
2022-11-25T12:35:47.303Z,100780.25
2022-11-25T12:38:25.515Z,100822.28
2022-11-25T12:41:02.149Z,100817.91
2022-11-25T12:43:44.572Z,100813.53
2022-11-25T12:46:26.642Z,100801.34
2022-11-25T12:48:58.214Z,100822.38
2022-11-25T12:51:52.323Z,100823.28
2022-11-25T12:54:38.651Z,100825.09
2022-11-25T12:57:57.257Z,100818.91
2022-11-25T13:00:44.294Z,100824.16
2022-11-25T13:03:54.824Z,100830.34
2022-11-25T13:06:53.160Z,100832.06
2022-11-25T13:09:41.448Z,100831.19
2022-11-25T13:12:21.906Z,100838.22
2022-11-25T13:15:23.591Z,100834.69
2022-11-25T13:17:57.117Z,100833.81
2022-11-25T13:20:55.499Z,100831.19
2022-11-25T13:23:27.067Z,100832.91
2022-11-25T13:26:37.671Z,100832.91
2022-11-25T13:29:43.097Z,100832.88
2022-11-25T13:32:28.947Z,100836.34
2022-11-25T13:35:36.611Z,100843.38
2022-11-25T13:39:04.875Z,100783.88
2022-11-25T13:41:43.246Z,100844.25
2022-11-25T13:44:30.752Z,100845.16
2022-11-25T13:47:01.799Z,100841.66
2022-11-25T13:49:51.529Z,100848.72
2022-11-25T13:52:42.354Z,100840.84
2022-11-25T13:55:27.320Z,100840.00
2022-11-25T13:58:19.604Z,100839.16
2022-11-25T14:01:24.857Z,100847.09
2022-11-25T14:04:01.287Z,100852.41
2022-11-25T14:07:00.965Z,100847.16
2022-11-25T14:09:47.567Z,100850.69
2022-11-25T14:12:32.894Z,100846.31
2022-11-25T14:15:29.746Z,100850.72
2022-11-25T14:18:53.236Z,100856.00
2022-11-25T14:21:38.008Z,100854.25
2022-11-25T14:24:21.003Z,100856.03
2022-11-25T14:26:53.431Z,100852.53
2022-11-25T14:29:28.971Z,100855.19
2022-11-25T14:32:03.060Z,100857.81
2022-11-25T14:34:37.888Z,100862.22
2022-11-25T14:37:12.902Z,100858.72
2022-11-25T14:39:47.478Z,100855.22
2022-11-25T14:42:18.564Z,100862.25
2022-11-25T14:44:50.662Z,100864.88
2022-11-25T14:47:24.162Z,100870.13
2022-11-25T14:50:18.769Z,100873.66
2022-11-25T14:52:45.981Z,100875.41
2022-11-25T14:55:15.539Z,100880.63
2022-11-25T14:57:46.901Z,100814.03
2022-11-25T15:00:18.999Z,100877.09
2022-11-25T15:02:56.596Z,100877.94
2022-11-25T15:05:28.194Z,100862.19
2022-11-25T15:08:03.686Z,100878.81
2022-11-25T15:10:45.887Z,100882.31
2022-11-25T15:13:25.086Z,100881.44
2022-11-25T15:15:56.744Z,100883.22
2022-11-25T15:18:27.024Z,100883.19
2022-11-25T15:20:59.546Z,100890.22
2022-11-25T15:23:34.579Z,100888.44
2022-11-25T15:26:04.606Z,100901.63
2022-11-25T15:28:37.070Z,100902.47
2022-11-25T15:31:13.473Z,100905.06
2022-11-25T15:33:43.251Z,100899.81
2022-11-25T15:36:12.018Z,100905.94
2022-11-25T15:38:43.722Z,100848.97
2022-11-25T15:41:19.630Z,100909.44
2022-11-25T15:43:50.555Z,100907.63
2022-11-25T15:46:20.875Z,100900.59
2022-11-25T15:48:52.497Z,100905.88
2022-11-25T15:51:32.775Z,100845.44
2022-11-25T15:54:06.624Z,100910.22
2022-11-25T15:56:38.611Z,100912.00
2022-11-25T15:59:27.445Z,100912.88
2022-11-25T16:01:57.552Z,100914.63
2022-11-25T16:04:26.855Z,100906.69
2022-11-25T16:06:56.837Z,100902.28
2022-11-25T16:09:28.880Z,100900.53
2022-11-25T16:12:13.228Z,100909.31
2022-11-25T16:14:41.904Z,100907.56
2022-11-25T16:17:14.253Z,100902.25
2022-11-25T16:19:45.043Z,100904.88
2022-11-25T16:22:16.317Z,100905.75
2022-11-25T16:24:50.929Z,100913.66
2022-11-25T16:27:25.237Z,100914.53
2022-11-25T16:29:58.557Z,100919.81
2022-11-25T16:32:31.398Z,100920.69
2022-11-25T16:35:13.324Z,100930.34
2022-11-25T16:37:47.219Z,100922.44
2022-11-25T16:40:18.964Z,100925.06
2022-11-25T16:42:49.757Z,100918.00
2022-11-25T16:45:21.941Z,100918.00
2022-11-25T16:47:52.349Z,100921.53
2022-11-25T16:50:22.909Z,100923.28
2022-11-25T16:52:52.338Z,100924.16
2022-11-25T16:55:21.175Z,100928.56
2022-11-25T16:57:50.731Z,100927.66
2022-11-25T17:00:19.928Z,100932.94
2022-11-25T17:02:48.546Z,100932.94
2022-11-25T17:05:23.004Z,100906.69
2022-11-25T17:07:52.579Z,100934.69
2022-11-25T17:10:21.824Z,100931.19
2022-11-25T17:12:51.412Z,100930.31
2022-11-25T17:15:24.908Z,100945.25
2022-11-25T17:17:53.892Z,100944.38
2022-11-25T17:20:25.649Z,100939.09
2022-11-25T17:22:54.965Z,100944.38
2022-11-25T17:25:25.623Z,100935.56
2022-11-25T17:27:56.116Z,100943.44
2022-11-25T17:30:27.303Z,100948.75
2022-11-25T17:33:02.273Z,100954.03
2022-11-25T17:35:32.492Z,100961.06
2022-11-25T17:38:02.009Z,100961.06
2022-11-25T17:40:31.174Z,100962.81
2022-11-25T17:42:59.961Z,100961.94
2022-11-25T17:45:29.522Z,100967.22
2022-11-25T17:47:58.755Z,100968.09
2022-11-25T17:50:28.112Z,100975.13
2022-11-25T17:52:58.117Z,100974.25
2022-11-25T17:55:27.232Z,100976.88
2022-11-25T17:57:55.865Z,100983.03
2022-11-25T18:00:24.974Z,100973.38
2022-11-25T18:02:54.572Z,100978.63
2022-11-25T18:05:25.022Z,100970.72
2022-11-25T18:07:54.447Z,100979.50
2022-11-25T18:10:27.860Z,100983.03
2022-11-25T18:12:58.647Z,100982.16
2022-11-25T18:15:30.820Z,100934.81
2022-11-25T18:18:03.608Z,100984.81
2022-11-25T18:20:33.225Z,100989.22
2022-11-25T18:23:02.458Z,100987.44
2022-11-25T18:25:34.966Z,100993.56
2022-11-25T18:28:05.531Z,100992.72
2022-11-25T18:30:36.965Z,100992.72
2022-11-25T18:33:09.051Z,100998.00
2022-11-25T18:35:37.784Z,100998.00
2022-11-25T18:38:07.423Z,100998.88
2022-11-25T18:40:40.600Z,100991.84
2022-11-25T18:43:16.049Z,100999.75
2022-11-25T18:45:45.958Z,100996.25
2022-11-25T18:48:17.421Z,101005.03
2022-11-25T18:50:47.433Z,101006.78
2022-11-25T18:53:16.838Z,101010.28
2022-11-25T18:55:47.823Z,101017.31
2022-11-25T18:58:18.907Z,101021.72
2022-11-25T19:00:49.646Z,101020.84
2022-11-25T19:03:20.475Z,101024.34
2022-11-25T19:08:36.527Z,101022.59
2022-11-25T19:11:07.332Z,101028.75
2022-11-25T19:13:37.462Z,101035.81
2022-11-25T19:16:09.470Z,101034.03
2022-11-25T19:18:38.269Z,101035.81
2022-11-25T19:21:07.222Z,101039.31
2022-11-25T19:23:36.542Z,101046.34
2022-11-25T19:26:15.600Z,101047.22
2022-11-25T19:28:49.599Z,101041.09
2022-11-25T19:31:21.329Z,101051.63
2022-11-25T19:33:53.357Z,101054.28
2022-11-25T19:36:25.435Z,101057.78
2022-11-25T19:38:55.869Z,101056.91
2022-11-25T19:41:26.262Z,101059.53
2022-11-25T19:43:55.171Z,101064.81
2022-11-25T19:46:46.382Z,101064.81
2022-11-25T19:49:24.380Z,101069.22
2022-11-25T19:51:54.241Z,101082.41
2022-11-25T19:54:22.981Z,101076.25
2022-11-25T19:56:53.378Z,101076.25
2022-11-25T19:59:22.250Z,101082.38
2022-11-25T20:01:51.137Z,101081.53
2022-11-25T20:04:22.437Z,101087.66
2022-11-25T20:06:52.173Z,101089.44
2022-11-25T20:09:20.938Z,101092.06
2022-11-25T20:11:54.667Z,101094.69
2022-11-25T20:14:25.734Z,101095.59
2022-11-25T20:16:55.130Z,101107.00
2022-11-25T20:19:24.381Z,101106.97
2022-11-25T20:21:55.861Z,101108.72
2022-11-25T20:24:26.899Z,101110.50
2022-11-25T20:26:57.782Z,101113.13
2022-11-25T20:29:30.669Z,101117.50
2022-11-25T20:32:20.242Z,101119.28
2022-11-25T20:34:49.017Z,101126.28
2022-11-25T20:37:23.702Z,101122.78
2022-11-25T20:39:54.230Z,101123.66
2022-11-25T20:42:23.957Z,101131.53
2022-11-25T20:44:57.538Z,101129.78
2022-11-25T20:47:27.446Z,101129.78
2022-11-25T20:49:56.313Z,101135.94
2022-11-25T20:52:29.049Z,101141.22
2022-11-25T20:54:58.132Z,101142.97
2022-11-25T20:57:27.233Z,101142.97
2022-11-25T20:59:57.286Z,101142.09
2022-11-25T21:02:25.967Z,101139.47
2022-11-25T21:04:54.566Z,101144.72
2022-11-25T21:07:23.285Z,101149.97
2022-11-25T21:09:51.930Z,101153.50
2022-11-25T21:12:20.600Z,101151.75
2022-11-25T21:14:50.268Z,101158.78
2022-11-25T21:17:20.822Z,101152.63
2022-11-25T21:19:49.536Z,101159.66
2022-11-25T21:22:18.485Z,101163.16
2022-11-25T21:24:47.467Z,101168.44
2022-11-25T21:27:19.973Z,101164.06
2022-11-25T21:29:48.790Z,101173.72
2022-11-25T21:32:24.388Z,101170.16
2022-11-25T21:34:53.715Z,101177.19
2022-11-25T21:37:29.956Z,101179.84
2022-11-25T21:39:59.618Z,101182.47
2022-11-25T21:42:30.325Z,101182.47
2022-11-25T21:44:59.222Z,101180.72
2022-11-25T21:47:31.685Z,101186.88
2022-11-25T21:50:01.515Z,101186.00
2022-11-25T21:52:30.096Z,101184.25
2022-11-25T21:54:58.867Z,101191.28
2022-11-25T21:57:30.309Z,101144.72
2022-11-25T21:59:59.064Z,101192.16
2022-11-25T22:02:29.074Z,101195.66
2022-11-25T22:04:58.700Z,101197.41
2022-11-25T22:07:30.734Z,101200.06
2022-11-25T22:09:59.814Z,101204.47
2022-11-25T22:12:30.730Z,101209.72
2022-11-25T22:15:01.051Z,101213.22
2022-11-25T22:17:31.953Z,101213.22
2022-11-25T22:20:00.877Z,101215.88
2022-11-25T22:22:29.701Z,101213.25
2022-11-25T22:24:58.382Z,101217.63
2022-11-25T22:27:36.083Z,101220.25
2022-11-25T22:30:05.864Z,101226.41
2022-11-25T22:32:35.919Z,101224.63
2022-11-25T22:35:06.742Z,101227.28
2022-11-25T22:37:35.431Z,101229.91
2022-11-25T22:40:04.062Z,101228.16
2022-11-25T22:42:33.732Z,101231.69
2022-11-25T22:45:05.220Z,101236.06
2022-11-25T22:47:42.024Z,101170.16
2022-11-25T22:50:21.688Z,101237.81
2022-11-25T22:52:50.977Z,101241.34
2022-11-25T22:55:22.073Z,101244.88
2022-11-25T22:57:51.719Z,101243.06
2022-11-25T23:00:24.627Z,101248.34
2022-11-25T23:02:58.255Z,101253.63
2022-11-25T23:05:33.040Z,101244.84
2022-11-25T23:08:02.990Z,101251.84
2022-11-25T23:10:32.938Z,101164.00
2022-11-25T23:13:01.648Z,101252.72
2022-11-25T23:15:31.138Z,101259.75
2022-11-25T23:18:04.128Z,101257.13
2022-11-25T23:20:34.608Z,101255.41
2022-11-25T23:23:11.611Z,101255.41
2022-11-25T23:25:40.359Z,101260.66
2022-11-25T23:28:09.019Z,101262.41
2022-11-25T23:30:38.532Z,101269.44
2022-11-25T23:33:16.930Z,101264.16
2022-11-25T23:35:45.697Z,101265.03
2022-11-25T23:38:19.819Z,101277.34
2022-11-25T23:40:48.501Z,101276.47
2022-11-25T23:43:18.290Z,101276.47
2022-11-25T23:45:52.473Z,101284.34
2022-11-25T23:48:27.017Z,101286.09
2022-11-25T23:50:58.102Z,101290.50
2022-11-25T23:53:30.224Z,101292.25
2022-11-25T23:55:59.175Z,101288.75
2022-11-25T23:58:27.861Z,101295.78
